Time;durP1;ratioP1;P1;durP2;ratioP2;P2;SDS_P1;SDS_P2;PMS_P1;PMS_P2;Temp;Humidity;BMP_temperature;BMP_pressure;BME280_temperature;BME280_humidity;BME280_pressure;Samples;Min_cycle;Max_cycle;Signal;HPM_P1;HPM_P2
2021/12/30 00:01:00;;;;;;;7.33;5.33;;;;;;;2.52;100.00;98438.47;4961157;28;20138;-57
2021/12/30 00:03:26;;;;;;;12.57;7.13;;;;;;;2.52;100.00;98440.16;4957969;28;20034;-57
2021/12/30 00:05:52;;;;;;;14.47;7.10;;;;;;;2.56;100.00;98439.34;4955104;28;20062;-55
2021/12/30 00:08:19;;;;;;;6.93;5.33;;;;;;;2.58;100.00;98446.13;4954015;28;20046;-57
2021/12/30 00:10:45;;;;;;;6.50;4.00;;;;;;;2.58;100.00;98445.28;4955843;28;20541;-56
2021/12/30 00:13:11;;;;;;;8.03;3.73;;;;;;;2.57;100.00;98446.13;4957431;28;20028;-57
2021/12/30 00:15:37;;;;;;;6.73;4.43;;;;;;;2.65;100.00;98447.03;4954916;28;20070;-56
2021/12/30 00:18:06;;;;;;;8.33;4.57;;;;;;;2.69;100.00;98443.69;4951022;28;20031;-57
2021/12/30 00:20:32;;;;;;;6.50;4.40;;;;;;;2.69;100.00;98448.75;4956193;28;20661;-58
2021/12/30 00:23:01;;;;;;;6.57;3.70;;;;;;;2.76;100.00;98442.91;4956415;28;20535;-55
2021/12/30 00:25:27;;;;;;;5.13;3.53;;;;;;;2.94;100.00;98454.88;4949964;28;20038;-57
2021/12/30 00:27:52;;;;;;;8.33;3.47;;;;;;;2.93;100.00;98458.25;4956288;28;20392;-57
2021/12/30 00:30:18;;;;;;;6.17;3.30;;;;;;;2.98;100.00;98451.53;4955235;28;20031;-56
2021/12/30 00:32:43;;;;;;;6.73;3.30;;;;;;;3.05;100.00;98459.22;4954549;28;20047;-58
2021/12/30 00:35:11;;;;;;;4.40;3.20;;;;;;;3.09;100.00;98452.47;4950025;28;20117;-58
2021/12/30 00:37:37;;;;;;;5.73;3.90;;;;;;;3.05;100.00;98444.00;4953942;28;20034;-57
2021/12/30 00:40:04;;;;;;;3.97;3.00;;;;;;;3.08;100.00;98446.56;4955326;28;20035;-58
2021/12/30 00:42:29;;;;;;;5.70;3.33;;;;;;;3.13;100.00;98447.44;4953494;28;20389;-57
2021/12/30 00:44:55;;;;;;;5.40;3.63;;;;;;;3.26;100.00;98450.06;4942192;28;20056;-58
2021/12/30 00:47:20;;;;;;;4.77;3.67;;;;;;;3.29;100.00;98452.59;4954789;28;20031;-58
2021/12/30 00:49:45;;;;;;;3.87;3.27;;;;;;;3.28;100.00;98441.63;4955082;28;20549;-57
2021/12/30 00:52:11;;;;;;;3.83;3.23;;;;;;;3.28;100.00;98445.84;4954628;28;20038;-58
2021/12/30 00:54:36;;;;;;;5.13;2.80;;;;;;;3.36;100.00;98456.88;4954469;28;20039;-57
2021/12/30 00:57:02;;;;;;;4.60;2.93;;;;;;;3.42;100.00;98457.78;4954911;28;20035;-58
2021/12/30 00:59:27;;;;;;;4.87;3.13;;;;;;;3.36;100.00;98462.78;4956036;28;20480;-57
2021/12/30 01:01:53;;;;;;;4.83;3.27;;;;;;;3.33;100.00;98470.38;4952307;28;20444;-58
2021/12/30 01:04:20;;;;;;;5.07;3.00;;;;;;;3.34;100.00;98461.94;4950900;28;20057;-58
2021/12/30 01:06:46;;;;;;;3.23;2.73;;;;;;;3.45;100.00;98469.59;4956138;28;20042;-55
2021/12/30 01:09:11;;;;;;;5.03;2.70;;;;;;;3.50;100.00;98461.19;4954080;28;20035;-57
2021/12/30 01:11:37;;;;;;;3.27;2.53;;;;;;;3.49;100.00;98471.31;4952387;28;20043;-56
2021/12/30 01:14:10;;;;;;;3.67;2.23;;;;;;;3.61;100.00;98471.38;4949981;28;20046;-58
2021/12/30 01:16:41;;;;;;;3.40;2.00;;;;;;;3.65;100.00;98470.56;4952486;28;20031;-57
2021/12/30 01:21:41;;;;;;;4.43;3.20;;;;;;;3.63;100.00;98468.03;4948758;28;20043;-57
2021/12/30 01:24:06;;;;;;;4.03;2.23;;;;;;;3.76;100.00;98473.19;4948489;28;20497;-56
2021/12/30 01:26:32;;;;;;;5.03;2.40;;;;;;;3.83;100.00;98478.28;4952196;28;20085;-55
2021/12/30 01:28:57;;;;;;;2.87;2.30;;;;;;;3.80;100.00;98473.19;4954821;28;20507;-56
2021/12/30 01:31:25;;;;;;;8.63;2.70;;;;;;;3.81;100.00;98481.66;4951962;28;20045;-56
2021/12/30 01:33:50;;;;;;;2.60;2.00;;;;;;;3.85;100.00;98490.97;4949528;28;20035;-57
2021/12/30 01:36:16;;;;;;;3.10;2.17;;;;;;;3.83;100.00;98493.50;4955079;28;20019;-57
2021/12/30 01:38:43;;;;;;;3.70;2.20;;;;;;;3.85;100.00;98493.50;4955585;28;20688;-56
2021/12/30 01:41:10;;;;;;;5.73;2.10;;;;;;;3.93;100.00;98495.25;4952427;28;20220;-57
2021/12/30 01:43:36;;;;;;;4.07;2.13;;;;;;;3.96;100.00;98494.41;4949574;28;20130;-56
2021/12/30 01:46:07;;;;;;;2.53;1.90;;;;;;;3.99;100.00;98492.72;4955366;28;20034;-57
2021/12/30 01:48:32;;;;;;;3.07;1.73;;;;;;;4.04;100.00;98500.34;4951043;28;20042;-56
2021/12/30 01:50:58;;;;;;;4.23;2.10;;;;;;;4.00;100.00;98496.09;4949301;28;20106;-56
2021/12/30 01:53:23;;;;;;;2.40;2.20;;;;;;;4.01;100.00;98491.06;4948291;28;20477;-57
2021/12/30 01:55:50;;;;;;;2.50;1.87;;;;;;;4.06;100.00;98493.63;4954724;28;20090;-56
2021/12/30 01:58:17;;;;;;;6.47;3.80;;;;;;;4.09;100.00;98501.22;4952594;28;20038;-58
2021/12/30 02:00:45;;;;;;;4.20;3.50;;;;;;;4.10;100.00;98495.31;4951933;28;20401;-56
2021/12/30 02:03:13;;;;;;;2.83;2.43;;;;;;;4.13;100.00;98490.25;4952489;28;20129;-57
2021/12/30 02:05:39;;;;;;;2.50;2.10;;;;;;;4.13;100.00;98485.19;4953458;28;20043;-57
2021/12/30 02:08:13;;;;;;;2.67;2.10;;;;;;;4.13;100.00;98487.72;4958341;28;20057;-57
2021/12/30 02:10:42;;;;;;;2.97;2.47;;;;;;;4.08;100.00;98467.41;4949524;28;20054;-57
2021/12/30 02:13:08;;;;;;;2.90;2.40;;;;;;;4.07;100.00;98467.41;4949406;28;20050;-58
2021/12/30 02:15:34;;;;;;;3.57;2.07;;;;;;;4.09;100.00;98458.97;4953181;28;20118;-57
2021/12/30 02:18:01;;;;;;;2.93;2.50;;;;;;;4.14;100.00;98461.50;4951973;28;20110;-58
2021/12/30 02:20:48;;;;;;;2.30;2.10;;;;;;;4.18;100.00;98462.38;4950686;28;20035;-57
2021/12/30 02:23:19;;;;;;;4.43;3.20;;;;;;;4.24;100.00;98459.88;4953476;28;20039;-58
2021/12/30 02:25:46;;;;;;;5.33;2.63;;;;;;;4.29;100.00;98471.69;4952738;28;20039;-57
2021/12/30 02:28:14;;;;;;;4.73;2.53;;;;;;;4.31;100.00;98471.72;4948424;28;20377;-57
2021/12/30 02:30:40;;;;;;;3.17;2.10;;;;;;;4.38;100.00;98476.81;4949341;28;20057;-57
2021/12/30 02:33:06;;;;;;;3.00;2.40;;;;;;;4.36;100.00;98475.97;4952695;28;20051;-56
2021/12/30 02:35:32;;;;;;;4.27;2.73;;;;;;;4.37;100.00;98480.19;4951499;28;20143;-58
2021/12/30 02:37:58;;;;;;;3.47;2.27;;;;;;;4.35;100.00;98484.44;4953617;28;20089;-56
2021/12/30 02:40:38;;;;;;;3.60;2.60;;;;;;;4.34;100.00;98472.56;4948925;28;20563;-58
2021/12/30 02:43:10;;;;;;;3.63;2.40;;;;;;;4.37;100.00;98472.56;4951755;28;20031;-58
2021/12/30 02:45:36;;;;;;;5.70;2.20;;;;;;;4.33;100.00;98464.97;4952363;28;20419;-58
2021/12/30 02:48:01;;;;;;;4.53;2.10;;;;;;;4.30;100.00;98470.00;4949651;28;20424;-57
2021/12/30 02:50:27;;;;;;;4.40;2.33;;;;;;;4.24;100.00;98463.25;4949828;28;20110;-57
2021/12/30 02:52:52;;;;;;;2.43;1.97;;;;;;;4.15;100.00;98470.84;4951515;28;20091;-57
2021/12/30 02:55:18;;;;;;;2.60;2.13;;;;;;;4.11;100.00;98457.28;4949650;28;20046;-57
2021/12/30 02:57:43;;;;;;;3.90;1.83;;;;;;;4.16;100.00;98479.28;4950495;28;20580;-57
2021/12/30 03:00:10;;;;;;;2.93;1.87;;;;;;;4.30;100.00;98483.56;4952983;28;20500;-57
2021/12/30 03:02:37;;;;;;;3.47;1.93;;;;;;;4.34;100.00;98476.78;4958046;28;20580;-56
2021/12/30 03:05:05;;;;;;;1.77;1.60;;;;;;;4.41;100.00;98483.59;4955368;28;20122;-57
2021/12/30 03:07:30;;;;;;;2.87;1.80;;;;;;;4.42;100.00;98508.97;4951863;28;20031;-53
2021/12/30 03:09:55;;;;;;;2.00;1.47;;;;;;;4.43;100.00;98505.59;4951764;28;20100;-56
2021/12/30 03:12:21;;;;;;;3.30;2.20;;;;;;;4.34;100.00;98502.16;4949416;28;20034;-56
2021/12/30 03:14:46;;;;;;;2.70;1.70;;;;;;;4.37;100.00;98517.44;4957617;28;20068;-57
2021/12/30 03:17:12;;;;;;;2.50;1.80;;;;;;;4.34;100.00;98518.25;4953384;28;20090;-55
2021/12/30 03:19:38;;;;;;;2.20;1.80;;;;;;;4.34;100.00;98520.78;4955144;28;20125;-55
2021/12/30 03:22:03;;;;;;;4.33;2.07;;;;;;;4.29;100.00;98522.44;4955335;28;20031;-56
2021/12/30 03:24:29;;;;;;;4.60;2.20;;;;;;;4.31;100.00;98522.47;4953566;28;20035;-56
2021/12/30 03:26:54;;;;;;;2.30;2.10;;;;;;;4.33;100.00;98530.94;4951000;28;20027;-55
2021/12/30 03:29:20;;;;;;;3.87;2.00;;;;;;;4.30;100.00;98530.91;4956750;28;20043;-57
2021/12/30 03:31:46;;;;;;;5.77;2.73;;;;;;;4.29;100.00;98536.81;4954436;28;20038;-55
2021/12/30 03:34:12;;;;;;;3.77;2.63;;;;;;;4.29;100.00;98535.13;4953647;28;20039;-56
2021/12/30 03:36:37;;;;;;;5.50;3.00;;;;;;;4.22;100.00;98543.56;4950669;28;20035;-56
2021/12/30 03:39:04;;;;;;;4.40;3.20;;;;;;;4.24;100.00;98544.44;4955033;28;20048;-57
2021/12/30 03:41:31;;;;;;;4.90;3.10;;;;;;;4.25;100.00;98546.13;4957082;28;20031;-55
2021/12/30 03:43:59;;;;;;;7.97;4.00;;;;;;;4.26;100.00;98547.81;4951967;28;20054;-57
2021/12/30 03:46:24;;;;;;;9.17;3.87;;;;;;;4.30;100.00;98541.91;4953806;28;20081;-57
2021/12/30 03:48:50;;;;;;;4.00;3.27;;;;;;;4.33;100.00;98541.91;4954912;28;20042;-57
2021/12/30 03:51:22;;;;;;;5.50;3.40;;;;;;;4.33;100.00;98541.09;4955598;28;20034;-56
2021/12/30 03:53:49;;;;;;;8.17;3.40;;;;;;;4.36;100.00;98551.25;4951535;28;20113;-57
2021/12/30 03:56:18;;;;;;;8.17;3.50;;;;;;;4.34;100.00;98555.47;4952011;28;20038;-55
2021/12/30 03:58:44;;;;;;;5.50;3.83;;;;;;;4.35;100.00;98554.63;4953574;28;20042;-57
2021/12/30 04:01:14;;;;;;;12.97;4.97;;;;;;;4.28;100.00;98551.22;4954782;28;20565;-57
2021/12/30 04:03:40;;;;;;;7.70;3.70;;;;;;;4.33;100.00;98563.94;4950932;28;20035;-56
2021/12/30 04:06:06;;;;;;;9.23;4.30;;;;;;;4.28;100.00;98558.84;4951620;28;20508;-54
2021/12/30 04:08:31;;;;;;;6.73;3.70;;;;;;;4.29;100.00;98555.44;4953444;28;20567;-54
2021/12/30 04:10:57;;;;;;;6.00;3.83;;;;;;;4.25;100.00;98565.56;4952814;28;20032;-56
2021/12/30 04:13:23;;;;;;;7.57;4.47;;;;;;;4.27;100.00;98556.28;4950479;28;20090;-55
2021/12/30 04:15:48;;;;;;;6.83;4.60;;;;;;;4.21;100.00;98564.72;4954373;28;20114;-57
2021/12/30 04:18:14;;;;;;;7.33;4.57;;;;;;;4.26;100.00;98560.50;4952880;28;20090;-56
2021/12/30 04:20:39;;;;;;;5.40;3.23;;;;;;;4.29;100.00;98564.72;4952826;28;20544;-56
2021/12/30 04:23:05;;;;;;;5.23;2.90;;;;;;;4.24;100.00;98569.81;4951150;28;20045;-57
2021/12/30 04:25:30;;;;;;;6.27;4.10;;;;;;;4.18;100.00;98572.31;4953370;28;20043;-54
2021/12/30 04:27:56;;;;;;;5.97;2.90;;;;;;;4.12;100.00;98575.66;4952089;28;20023;-53
2021/12/30 04:30:21;;;;;;;4.40;2.90;;;;;;;4.21;100.00;98581.63;4951398;28;20035;-57
2021/12/30 04:32:47;;;;;;;3.23;2.57;;;;;;;4.26;100.00;98575.72;4951479;28;20031;-57
2021/12/30 04:35:13;;;;;;;3.67;2.57;;;;;;;4.26;100.00;98579.94;4954833;28;20532;-57
2021/12/30 04:37:38;;;;;;;6.13;2.80;;;;;;;4.26;100.00;98585.88;4954401;28;20046;-54
2021/12/30 04:40:06;;;;;;;3.00;2.40;;;;;;;4.28;100.00;98581.69;4953697;28;20484;-56
2021/12/30 04:42:32;;;;;;;4.83;2.87;;;;;;;4.29;100.00;98585.03;4951187;28;20383;-57
2021/12/30 04:44:57;;;;;;;2.90;2.40;;;;;;;4.31;100.00;98589.28;4951866;28;20693;-55
2021/12/30 04:47:25;;;;;;;4.17;3.00;;;;;;;4.33;100.00;98595.22;4951696;28;20031;-56
2021/12/30 04:49:52;;;;;;;5.60;3.57;;;;;;;4.39;100.00;98596.94;4949439;28;20106;-57
2021/12/30 04:52:17;;;;;;;5.90;3.10;;;;;;;4.47;100.00;98596.13;4949979;28;20034;-58
2021/12/30 04:54:43;;;;;;;5.03;3.40;;;;;;;4.44;100.00;98602.91;4954549;28;20050;-57
2021/12/30 04:57:08;;;;;;;5.67;3.20;;;;;;;4.39;100.00;98604.56;4939926;28;20027;-58
2021/12/30 04:59:34;;;;;;;6.17;4.37;;;;;;;4.34;100.00;98613.81;4951372;28;20133;-58
2021/12/30 05:01:59;;;;;;;5.97;3.10;;;;;;;4.31;100.00;98616.34;4950112;28;20074;-58
2021/12/30 05:04:25;;;;;;;7.27;3.73;;;;;;;4.31;100.00;98621.44;4952993;28;20038;-57
2021/12/30 05:06:51;;;;;;;3.70;2.70;;;;;;;4.29;100.00;98618.88;4956935;28;20050;-57
2021/12/30 05:09:16;;;;;;;8.73;3.40;;;;;;;4.34;100.00;98622.28;4950392;28;20118;-57
2021/12/30 05:11:42;;;;;;;6.07;3.20;;;;;;;4.31;100.00;98617.22;4950097;28;20038;-57
2021/12/30 05:14:11;;;;;;;6.23;3.40;;;;;;;4.40;100.00;98618.94;4953536;28;20055;-56
2021/12/30 05:16:37;;;;;;;4.07;3.50;;;;;;;4.37;100.00;98624.03;4952953;28;20035;-54
2021/12/30 05:19:03;;;;;;;4.53;3.50;;;;;;;4.38;100.00;98634.16;4951628;28;20057;-56
2021/12/30 05:21:29;;;;;;;7.60;3.63;;;;;;;4.32;100.00;98623.13;4936977;28;20473;-56
2021/12/30 05:23:54;;;;;;;6.03;3.33;;;;;;;4.35;100.00;98635.84;4952870;28;20033;-57
2021/12/30 05:26:22;;;;;;;5.67;3.70;;;;;;;4.43;100.00;98635.03;4952138;28;20031;-57
2021/12/30 05:28:48;;;;;;;4.70;3.17;;;;;;;4.39;100.00;98627.41;4949929;28;20344;-57
2021/12/30 05:31:13;;;;;;;5.37;3.97;;;;;;;4.36;100.00;98617.25;4951444;28;20367;-58
2021/12/30 05:33:40;;;;;;;7.20;4.07;;;;;;;4.37;100.00;98619.75;4956066;28;20536;-58
2021/12/30 05:36:05;;;;;;;5.40;3.90;;;;;;;4.37;100.00;98624.03;4954216;28;20035;-56
2021/12/30 05:38:31;;;;;;;6.47;4.10;;;;;;;4.42;100.00;98620.63;4951070;28;20521;-57
2021/12/30 05:40:57;;;;;;;6.43;3.13;;;;;;;4.54;100.00;98620.69;4952227;28;20453;-55
2021/12/30 05:43:22;;;;;;;6.87;3.40;;;;;;;4.62;100.00;98630.06;4955814;28;20035;-57
2021/12/30 05:45:47;;;;;;;8.40;3.67;;;;;;;4.67;100.00;98638.56;4954159;28;20042;-57
2021/12/30 05:48:13;;;;;;;7.63;4.50;;;;;;;4.65;100.00;98651.22;4947916;28;20027;-56
2021/12/30 05:50:38;;;;;;;6.73;3.30;;;;;;;4.60;100.00;98658.81;4956109;28;20095;-55
2021/12/30 05:53:04;;;;;;;7.80;3.50;;;;;;;4.57;100.00;98658.81;4946067;28;20035;-56
2021/12/30 05:55:30;;;;;;;7.00;3.70;;;;;;;4.54;100.00;98652.88;4949581;28;20049;-57
2021/12/30 05:57:56;;;;;;;5.43;3.17;;;;;;;4.52;100.00;98657.94;4954393;28;20081;-57
2021/12/30 06:00:24;;;;;;;3.83;2.93;;;;;;;4.57;100.00;98668.97;4955271;28;20126;-57
2021/12/30 06:02:51;;;;;;;6.30;3.03;;;;;;;4.57;100.00;98666.44;4956254;28;20031;-56
2021/12/30 06:05:17;;;;;;;5.30;3.27;;;;;;;4.59;100.00;98674.88;4951952;28;20097;-55
2021/12/30 06:07:43;;;;;;;6.60;3.30;;;;;;;4.64;100.00;98674.06;4940522;28;20598;-56
2021/12/30 06:10:09;;;;;;;7.67;3.57;;;;;;;4.60;100.00;98675.75;4952020;28;20409;-56
2021/12/30 06:12:34;;;;;;;6.80;3.50;;;;;;;4.65;100.00;98676.63;4953008;28;20031;-54
2021/12/30 06:15:00;;;;;;;5.90;3.40;;;;;;;4.64;100.00;98674.91;4949900;28;20406;-57
2021/12/30 06:17:26;;;;;;;8.77;4.60;;;;;;;4.62;100.00;98685.91;4949171;28;20081;-57
2021/12/30 06:19:51;;;;;;;5.13;3.60;;;;;;;4.63;100.00;98695.19;4951871;28;20059;-56
2021/12/30 06:22:16;;;;;;;7.43;3.30;;;;;;;4.65;100.00;98691.84;4953267;28;20038;-56
2021/12/30 06:24:42;;;;;;;5.37;3.30;;;;;;;4.68;100.00;98702.00;4950741;28;20341;-54
2021/12/30 06:27:09;;;;;;;6.87;4.10;;;;;;;4.70;100.00;98700.34;4949634;28;20434;-56
2021/12/30 06:29:37;;;;;;;7.33;4.27;;;;;;;4.68;100.00;98699.47;4952928;28;20031;-55
2021/12/30 06:32:03;;;;;;;4.97;3.93;;;;;;;4.69;100.00;98687.63;4951256;28;20059;-56
2021/12/30 06:34:28;;;;;;;8.57;5.00;;;;;;;4.72;100.00;98711.34;4948213;28;20030;-56
2021/12/30 06:36:54;;;;;;;12.33;6.20;;;;;;;4.69;100.00;98708.81;4949316;28;20102;-56
2021/12/30 06:39:19;;;;;;;9.90;5.77;;;;;;;4.72;100.00;98713.03;4951548;28;20042;-57
2021/12/30 06:41:45;;;;;;;12.33;6.70;;;;;;;4.71;100.00;98718.97;4949871;28;20034;-53
2021/12/30 06:44:11;;;;;;;6.23;5.57;;;;;;;4.73;100.00;98719.81;4948744;28;20034;-58
2021/12/30 06:46:36;;;;;;;9.47;5.80;;;;;;;4.75;100.00;98734.25;4951647;28;20035;-56
2021/12/30 06:49:07;;;;;;;9.87;6.13;;;;;;;4.77;100.00;98732.53;4949127;28;20282;-55
2021/12/30 06:51:35;;;;;;;9.70;5.33;;;;;;;4.80;100.00;98736.78;4950155;28;20343;-57
2021/12/30 06:54:01;;;;;;;15.70;6.73;;;;;;;4.82;100.00;98738.50;4954227;28;20069;-57
2021/12/30 06:56:27;;;;;;;12.37;6.43;;;;;;;4.88;100.00;98740.25;4952445;28;20032;-56
2021/12/30 06:58:52;;;;;;;14.10;5.63;;;;;;;4.88;100.00;98743.59;4948945;28;20046;-55
2021/12/30 07:01:18;;;;;;;8.67;5.00;;;;;;;4.89;100.00;98737.69;4954805;28;20027;-56
2021/12/30 07:03:43;;;;;;;12.03;6.13;;;;;;;4.81;100.00;98736.78;4955759;28;20385;-55
2021/12/30 07:06:09;;;;;;;11.53;5.37;;;;;;;4.89;100.00;98747.84;4951358;28;20429;-55
2021/12/30 07:08:34;;;;;;;8.73;5.60;;;;;;;4.97;100.00;98755.50;4946320;28;20061;-57
2021/12/30 07:11:00;;;;;;;9.23;5.77;;;;;;;4.95;100.00;98759.75;4951807;28;20039;-57
2021/12/30 07:13:26;;;;;;;13.93;7.53;;;;;;;4.98;100.00;98763.13;4953618;28;20054;-55
2021/12/30 07:15:51;;;;;;;10.13;5.53;;;;;;;5.02;100.00;98772.47;4951062;28;20063;-56
2021/12/30 07:18:17;;;;;;;9.27;5.50;;;;;;;5.05;100.00;98772.47;4947647;28;20469;-54
2021/12/30 07:20:42;;;;;;;12.10;7.47;;;;;;;5.04;100.00;98769.94;4952085;28;20027;-56
2021/12/30 07:23:08;;;;;;;12.90;8.60;;;;;;;5.07;100.00;98758.09;4954192;28;20062;-57
2021/12/30 07:25:34;;;;;;;22.57;9.93;;;;;;;5.15;100.00;98768.31;4950546;28;20031;-56
2021/12/30 07:28:01;;;;;;;19.60;9.87;;;;;;;5.26;100.00;98770.91;4951064;28;20062;-56
2021/12/30 07:30:27;;;;;;;18.43;9.60;;;;;;;5.33;100.00;98778.56;4954196;28;20039;-57
2021/12/30 07:32:53;;;;;;;15.17;9.13;;;;;;;5.29;100.00;98781.94;4951016;28;20046;-55
2021/12/30 07:35:19;;;;;;;11.60;7.37;;;;;;;5.36;100.00;98777.72;4950477;28;20101;-56
2021/12/30 07:37:46;;;;;;;13.73;7.93;;;;;;;5.36;100.00;98776.03;4947469;28;20031;-56
2021/12/30 07:40:12;;;;;;;14.57;8.47;;;;;;;5.49;100.00;98782.00;4950198;28;20031;-57
2021/12/30 07:42:38;;;;;;;10.57;7.63;;;;;;;5.52;100.00;98789.63;4951073;28;20242;-57
2021/12/30 07:45:04;;;;;;;9.87;6.27;;;;;;;5.59;100.00;98783.75;4952198;28;20138;-57
2021/12/30 07:47:30;;;;;;;9.10;6.23;;;;;;;5.70;100.00;98788.84;4951676;28;20125;-55
2021/12/30 07:49:55;;;;;;;8.37;6.00;;;;;;;5.80;100.00;98801.59;4954947;28;20105;-56
2021/12/30 07:52:21;;;;;;;10.90;5.90;;;;;;;5.84;100.00;98795.69;4955724;28;20038;-56
2021/12/30 07:54:46;;;;;;;4.20;3.43;;;;;;;6.85;100.00;98786.41;4952204;28;20031;-57
2021/12/30 07:57:18;;;;;;;1.60;1.30;;;;;;;7.92;100.00;98802.16;4949941;28;20027;-57
2021/12/30 07:59:43;;;;;;;5.53;2.23;;;;;;;8.70;100.00;98798.19;4953319;28;20490;-56
2021/12/30 08:02:09;;;;;;;1.23;1.20;;;;;;;9.36;100.00;98803.50;4954573;28;20477;-56
2021/12/30 08:04:34;;;;;;;1.50;0.90;;;;;;;9.59;100.00;98789.56;4951423;28;20081;-57
2021/12/30 08:07:00;;;;;;;1.98;1.52;;;;;;;9.72;100.00;98795.38;4955506;28;20042;-56
2021/12/30 08:09:26;;;;;;;1.90;1.80;;;;;;;9.87;100.00;98792.63;4959671;28;20027;-56
2021/12/30 08:11:51;;;;;;;1.02;1.02;;;;;;;9.92;100.00;98774.63;4958151;28;20053;-56
2021/12/30 08:14:16;;;;;;;1.08;1.08;;;;;;;9.98;100.00;98783.06;4961161;28;20723;-54
2021/12/30 08:16:43;;;;;;;0.80;0.80;;;;;;;10.10;100.00;98770.06;4959035;28;20062;-55
2021/12/30 08:19:09;;;;;;;0.93;0.93;;;;;;;10.09;100.00;98768.41;4957088;28;20035;-55
2021/12/30 08:21:34;;;;;;;1.45;1.13;;;;;;;10.15;100.00;98759.78;4957081;28;20029;-55
2021/12/30 08:24:00;;;;;;;1.02;0.93;;;;;;;10.18;100.00;98756.34;4957312;28;20039;-57
2021/12/30 08:26:25;;;;;;;1.10;1.10;;;;;;;10.26;100.00;98770.75;4958832;28;20042;-57
2021/12/30 08:28:51;;;;;;;2.28;1.02;;;;;;;10.27;100.00;98766.47;4962470;28;20037;-56
2021/12/30 08:31:16;;;;;;;1.30;1.20;;;;;;;10.30;100.00;98768.97;4957855;28;20089;-56
2021/12/30 08:33:42;;;;;;;1.30;1.05;;;;;;;10.41;100.00;98762.78;4956552;28;20153;-57
2021/12/30 08:36:08;;;;;;;2.33;1.27;;;;;;;10.54;100.00;98766.84;4956337;28;20042;-55
2021/12/30 08:38:33;;;;;;;2.42;1.20;;;;;;;10.73;100.00;98774.22;4958241;28;20031;-55
2021/12/30 08:40:59;;;;;;;1.30;1.20;;;;;;;10.87;100.00;98769.69;4956785;28;20027;-59
2021/12/30 08:43:26;;;;;;;2.15;1.20;;;;;;;11.04;100.00;98764.25;4955441;28;20030;-57
2021/12/30 08:45:51;;;;;;;1.45;1.35;;;;;;;11.24;100.00;98775.00;4958119;28;20074;-57
2021/12/30 08:48:17;;;;;;;2.58;1.50;;;;;;;11.25;100.00;98779.22;4957174;28;20546;-55
2021/12/30 08:50:42;;;;;;;1.23;1.20;;;;;;;11.29;100.00;98783.44;4948654;28;20065;-54
2021/12/30 08:53:08;;;;;;;1.25;1.15;;;;;;;11.33;100.00;98779.97;4957734;28;20454;-57
2021/12/30 08:55:34;;;;;;;1.63;1.35;;;;;;;11.27;100.00;98790.34;4961552;28;20066;-54
2021/12/30 08:58:00;;;;;;;4.15;1.35;;;;;;;11.40;100.00;98791.78;4945693;28;20031;-54
2021/12/30 09:00:29;;;;;;;1.40;1.30;;;;;;;11.44;100.00;98783.16;4955023;28;20053;-56
2021/12/30 09:02:57;;;;;;;2.67;1.33;;;;;;;11.51;100.00;98787.28;4957765;28;20039;-52
2021/12/30 09:05:23;;;;;;;2.25;1.27;;;;;;;11.55;100.00;98788.06;4961241;28;20035;-56
2021/12/30 09:07:50;;;;;;;1.50;1.40;;;;;;;11.56;100.00;98800.03;4958380;28;20034;-57
2021/12/30 09:10:17;;;;;;;1.52;1.42;;;;;;;11.66;100.00;98799.81;4954060;28;20031;-57
2021/12/30 09:12:43;;;;;;;1.75;1.30;;;;;;;11.72;100.00;98807.41;4953485;28;20572;-57
2021/12/30 09:15:12;;;;;;;2.30;1.77;;;;;;;11.71;100.00;98813.38;4959217;28;20085;-56
2021/12/30 09:17:39;;;;;;;2.63;1.80;;;;;;;11.76;100.00;98811.59;4956789;28;20058;-56
2021/12/30 09:20:06;;;;;;;1.40;1.30;;;;;;;11.83;100.00;98818.31;4954800;28;20023;-57
2021/12/30 09:22:32;;;;;;;2.40;2.20;;;;;;;11.75;100.00;98817.63;4957736;28;20611;-57
2021/12/30 09:24:58;;;;;;;4.72;1.40;;;;;;;11.72;100.00;98816.84;4960360;28;20103;-56
2021/12/30 09:27:23;;;;;;;2.92;2.72;;;;;;;11.79;100.00;98808.16;4956441;28;20110;-56
2021/12/30 09:29:49;;;;;;;3.47;2.10;;;;;;;11.75;100.00;98814.22;4955074;28;20023;-56
2021/12/30 09:32:14;;;;;;;2.80;2.60;;;;;;;11.72;100.00;98806.56;4960961;28;20038;-56
2021/12/30 09:34:40;;;;;;;3.00;1.92;;;;;;;11.80;100.00;98813.22;4963754;28;20137;-55
2021/12/30 09:37:09;;;;;;;3.25;1.73;;;;;;;11.81;100.00;98812.34;4959914;28;20157;-55
2021/12/30 09:39:36;;;;;;;1.45;1.35;;;;;;;11.85;100.00;98819.13;4953421;28;20027;-57
2021/12/30 09:42:03;;;;;;;1.98;1.30;;;;;;;11.91;100.00;98820.72;4955842;28;20086;-56
2021/12/30 09:44:29;;;;;;;3.45;1.60;;;;;;;11.99;100.00;98810.28;4957813;28;20120;-56
2021/12/30 09:46:54;;;;;;;3.30;1.40;;;;;;;12.01;100.00;98814.50;4956994;28;20158;-56
2021/12/30 09:49:23;;;;;;;4.38;2.17;;;;;;;12.02;100.00;98811.06;4954953;28;20056;-57
2021/12/30 09:51:50;;;;;;;5.95;2.53;;;;;;;12.21;100.00;98816.63;4956145;28;20043;-55
2021/12/30 09:54:16;;;;;;;2.22;1.52;;;;;;;12.21;100.00;98807.22;4956504;28;20895;-56
2021/12/30 09:56:45;;;;;;;3.85;1.83;;;;;;;12.36;100.00;98809.41;4956052;28;20405;-57
2021/12/30 09:59:12;;;;;;;1.70;1.58;;;;;;;12.44;100.00;98822.09;4951879;28;20039;-57
2021/12/30 10:01:41;;;;;;;1.42;1.40;;;;;;;12.40;100.00;98824.75;4959168;28;20039;-56
2021/12/30 10:04:09;;;;;;;2.17;1.38;;;;;;;12.39;100.00;98817.94;4955897;28;20079;-54
2021/12/30 10:06:40;;;;;;;1.77;1.60;;;;;;;12.21;100.00;98811.50;4957054;28;20295;-55
2021/12/30 10:09:11;;;;;;;1.42;1.40;;;;;;;12.25;100.00;98815.69;4957035;28;20407;-57
2021/12/30 10:11:49;;;;;;;1.60;1.50;;;;;;;12.22;100.00;98828.63;4957575;28;20121;-58
2021/12/30 10:14:36;;;;;;;1.50;1.40;;;;;;;12.13;100.00;98834.81;4960982;28;20043;-58
2021/12/30 10:17:22;;;;;;;2.58;1.50;;;;;;;12.19;100.00;98826.09;4954820;28;20043;-55
2021/12/30 10:19:50;;;;;;;2.58;1.52;;;;;;;12.22;100.00;98815.78;4956418;28;20050;-55
2021/12/30 10:22:21;;;;;;;1.65;1.55;;;;;;;12.22;100.00;98815.78;4955912;28;20662;-56
2021/12/30 10:24:47;;;;;;;1.90;1.80;;;;;;;12.28;100.00;98829.31;4956337;28;20035;-57
2021/12/30 10:27:27;;;;;;;2.47;1.83;;;;;;;12.33;100.00;98831.78;4954501;28;20044;-56
2021/12/30 10:29:54;;;;;;;2.60;1.40;;;;;;;12.47;100.00;98826.31;4956251;28;20035;-57
2021/12/30 10:32:28;;;;;;;1.77;1.67;;;;;;;12.55;100.00;98827.84;4957823;28;20091;-53
2021/12/30 10:35:11;;;;;;;2.63;1.40;;;;;;;12.81;100.00;98829.78;4955821;28;20320;-56
2021/12/30 10:37:38;;;;;;;1.77;1.50;;;;;;;12.95;100.00;98837.13;4953722;28;20466;-55
2021/12/30 10:40:28;;;;;;;2.17;1.42;;;;;;;13.07;100.00;98829.13;4957344;28;20481;-58
2021/12/30 10:43:29;;;;;;;1.65;1.13;;;;;;;13.22;100.00;98816.72;4956003;28;20072;-56
2021/12/30 10:46:21;;;;;;;1.05;1.05;;;;;;;13.27;100.00;98806.31;4954231;28;20101;-57
2021/12/30 10:49:09;;;;;;;1.45;1.38;;;;;;;13.37;100.00;98799.16;4957403;28;20130;-58
2021/12/30 10:51:43;;;;;;;2.15;1.20;;;;;;;13.39;100.00;98811.13;4955116;28;20107;-54
2021/12/30 10:54:30;;;;;;;2.67;1.58;;;;;;;13.60;100.00;98807.09;4952906;28;20469;-57
2021/12/30 10:57:07;;;;;;;1.60;1.50;;;;;;;13.86;100.00;98798.63;4953962;28;20042;-54
2021/12/30 10:59:42;;;;;;;2.22;1.40;;;;;;;13.99;100.00;98807.69;4957316;28;20149;-54
2021/12/30 11:02:18;;;;;;;2.42;1.45;;;;;;;14.23;100.00;98806.06;4957581;28;20112;-55
2021/12/30 11:04:46;;;;;;;1.38;1.27;;;;;;;14.21;100.00;98802.72;4955519;28;20489;-56
2021/12/30 11:07:18;;;;;;;2.22;1.50;;;;;;;14.02;100.00;98813.56;4954875;28;20039;-56
2021/12/30 11:09:49;;;;;;;1.23;1.10;;;;;;;13.95;100.00;98816.38;4956957;28;20035;-57
2021/12/30 11:12:16;;;;;;;5.03;2.38;;;;;;;13.94;100.00;98805.22;4958298;28;20089;-57
2021/12/30 11:14:41;;;;;;;1.77;1.20;;;;;;;13.85;100.00;98802.06;4950915;28;20516;-57
2021/12/30 11:17:17;;;;;;;1.60;1.10;;;;;;;13.83;100.00;98790.97;4954938;28;20043;-57
2021/12/30 11:20:03;;;;;;;1.55;1.45;;;;;;;14.04;100.00;98790.34;4960262;28;20389;-55
2021/12/30 11:22:31;;;;;;;1.30;1.30;;;;;;;14.10;100.00;98785.81;4962066;28;20035;-57
2021/12/30 11:24:59;;;;;;;1.92;1.33;;;;;;;14.04;100.00;98791.19;4958911;28;20039;-54
2021/12/30 11:27:27;;;;;;;2.53;1.40;;;;;;;14.17;100.00;98789.91;4958616;28;20050;-58
2021/12/30 11:29:55;;;;;;;1.10;1.10;;;;;;;14.25;100.00;98787.09;4957820;28;20042;-56
2021/12/30 11:32:25;;;;;;;1.17;1.17;;;;;;;14.44;100.00;98793.38;4960224;28;20078;-56